sensor_id;sensor_type;location;lat;lon;timestamp;P1;durP1;ratioP1;P2;durP2;ratioP2
10801;SDS011;5453;50.852;7.102;2024-01-15T00:00:22;17.88;;;5.43;;
10801;SDS011;5453;50.852;7.102;2024-01-15T00:02:55;9.95;;;3.80;;
10801;SDS011;5453;50.852;7.102;2024-01-15T00:05:27;10.15;;;4.05;;
10801;SDS011;5453;50.852;7.102;2024-01-15T00:08:00;10.27;;;4.45;;
10801;SDS011;5453;50.852;7.102;2024-01-15T00:10:33;11.57;;;4.28;;
10801;SDS011;5453;50.852;7.102;2024-01-15T00:13:06;7.70;;;4.05;;
10801;SDS011;5453;50.852;7.102;2024-01-15T00:15:38;12.73;;;3.92;;
10801;SDS011;5453;50.852;7.102;2024-01-15T00:18:10;8.68;;;3.95;;
10801;SDS011;5453;50.852;7.102;2024-01-15T00:20:43;8.52;;;3.97;;
10801;SDS011;5453;50.852;7.102;2024-01-15T00:23:15;9.00;;;4.75;;
10801;SDS011;5453;50.852;7.102;2024-01-15T00:25:50;11.15;;;3.95;;
10801;SDS011;5453;50.852;7.102;2024-01-15T00:28:23;12.13;;;4.07;;
10801;SDS011;5453;50.852;7.102;2024-01-15T00:30:55;9.57;;;3.90;;
10801;SDS011;5453;50.852;7.102;2024-01-15T00:33:27;11.13;;;3.97;;
10801;SDS011;5453;50.852;7.102;2024-01-15T00:36:00;8.98;;;3.92;;
10801;SDS011;5453;50.852;7.102;2024-01-15T00:38:32;7.03;;;3.03;;
10801;SDS011;5453;50.852;7.102;2024-01-15T00:41:06;6.38;;;3.75;;
10801;SDS011;5453;50.852;7.102;2024-01-15T00:43:38;17.00;;;4.15;;
10801;SDS011;5453;50.852;7.102;2024-01-15T00:46:11;13.10;;;4.03;;
10801;SDS011;5453;50.852;7.102;2024-01-15T00:48:43;14.48;;;4.40;;
10801;SDS011;5453;50.852;7.102;2024-01-15T00:51:17;7.25;;;3.03;;
10801;SDS011;5453;50.852;7.102;2024-01-15T00:53:49;10.27;;;4.22;;
10801;SDS011;5453;50.852;7.102;2024-01-15T00:56:23;7.72;;;3.47;;
10801;SDS011;5453;50.852;7.102;2024-01-15T00:58:58;7.40;;;3.85;;
10801;SDS011;5453;50.852;7.102;2024-01-15T01:01:31;10.10;;;4.05;;
10801;SDS011;5453;50.852;7.102;2024-01-15T01:04:04;9.13;;;5.00;;
10801;SDS011;5453;50.852;7.102;2024-01-15T01:06:36;8.48;;;3.35;;
10801;SDS011;5453;50.852;7.102;2024-01-15T01:09:08;6.55;;;2.55;;
10801;SDS011;5453;50.852;7.102;2024-01-15T01:11:42;11.38;;;5.13;;
10801;SDS011;5453;50.852;7.102;2024-01-15T01:14:14;11.77;;;4.30;;
10801;SDS011;5453;50.852;7.102;2024-01-15T01:16:47;12.95;;;5.63;;
10801;SDS011;5453;50.852;7.102;2024-01-15T01:19:19;10.57;;;4.65;;
10801;SDS011;5453;50.852;7.102;2024-01-15T01:21:51;10.82;;;4.70;;
10801;SDS011;5453;50.852;7.102;2024-01-15T01:24:24;13.13;;;5.00;;
10801;SDS011;5453;50.852;7.102;2024-01-15T01:26:57;11.20;;;4.55;;
10801;SDS011;5453;50.852;7.102;2024-01-15T01:29:30;13.77;;;5.50;;
10801;SDS011;5453;50.852;7.102;2024-01-15T01:32:02;16.02;;;4.78;;
10801;SDS011;5453;50.852;7.102;2024-01-15T01:34:39;6.85;;;3.60;;
10801;SDS011;5453;50.852;7.102;2024-01-15T01:37:13;13.35;;;4.35;;
10801;SDS011;5453;50.852;7.102;2024-01-15T01:39:46;14.27;;;5.75;;
10801;SDS011;5453;50.852;7.102;2024-01-15T01:42:20;10.40;;;4.32;;
10801;SDS011;5453;50.852;7.102;2024-01-15T01:44:52;11.55;;;4.32;;
10801;SDS011;5453;50.852;7.102;2024-01-15T01:47:24;12.75;;;4.90;;
10801;SDS011;5453;50.852;7.102;2024-01-15T01:49:57;11.85;;;4.07;;
10801;SDS011;5453;50.852;7.102;2024-01-15T01:52:29;10.82;;;4.57;;
10801;SDS011;5453;50.852;7.102;2024-01-15T01:55:06;13.07;;;4.20;;
10801;SDS011;5453;50.852;7.102;2024-01-15T01:57:42;18.88;;;5.15;;
10801;SDS011;5453;50.852;7.102;2024-01-15T02:00:14;9.98;;;3.65;;
10801;SDS011;5453;50.852;7.102;2024-01-15T02:02:47;8.57;;;4.20;;
10801;SDS011;5453;50.852;7.102;2024-01-15T02:05:23;13.55;;;4.70;;
10801;SDS011;5453;50.852;7.102;2024-01-15T02:07:56;14.07;;;5.28;;
10801;SDS011;5453;50.852;7.102;2024-01-15T02:10:28;11.93;;;5.28;;
10801;SDS011;5453;50.852;7.102;2024-01-15T02:13:02;8.25;;;4.30;;
10801;SDS011;5453;50.852;7.102;2024-01-15T02:15:34;13.20;;;5.30;;
10801;SDS011;5453;50.852;7.102;2024-01-15T02:18:07;10.00;;;4.22;;
10801;SDS011;5453;50.852;7.102;2024-01-15T02:20:39;14.63;;;5.63;;
10801;SDS011;5453;50.852;7.102;2024-01-15T02:23:13;11.13;;;4.90;;
10801;SDS011;5453;50.852;7.102;2024-01-15T02:25:47;16.33;;;5.88;;
10801;SDS011;5453;50.852;7.102;2024-01-15T02:28:19;12.60;;;5.53;;
10801;SDS011;5453;50.852;7.102;2024-01-15T02:30:52;16.23;;;5.70;;
10801;SDS011;5453;50.852;7.102;2024-01-15T02:33:24;12.68;;;4.35;;
10801;SDS011;5453;50.852;7.102;2024-01-15T02:35:56;11.45;;;4.65;;
10801;SDS011;5453;50.852;7.102;2024-01-15T02:38:30;15.25;;;4.13;;
10801;SDS011;5453;50.852;7.102;2024-01-15T02:41:06;14.38;;;5.07;;
10801;SDS011;5453;50.852;7.102;2024-01-15T02:46:10;9.55;;;3.35;;
10801;SDS011;5453;50.852;7.102;2024-01-15T02:48:43;11.13;;;5.22;;
10801;SDS011;5453;50.852;7.102;2024-01-15T02:51:18;13.55;;;5.75;;
10801;SDS011;5453;50.852;7.102;2024-01-15T02:56:24;9.77;;;4.40;;
10801;SDS011;5453;50.852;7.102;2024-01-15T02:58:56;10.30;;;3.90;;
10801;SDS011;5453;50.852;7.102;2024-01-15T03:01:32;17.33;;;5.43;;
10801;SDS011;5453;50.852;7.102;2024-01-15T03:06:37;11.65;;;5.13;;
10801;SDS011;5453;50.852;7.102;2024-01-15T03:09:10;6.70;;;3.80;;
10801;SDS011;5453;50.852;7.102;2024-01-15T03:11:43;13.43;;;5.00;;
10801;SDS011;5453;50.852;7.102;2024-01-15T03:14:15;13.32;;;3.33;;
10801;SDS011;5453;50.852;7.102;2024-01-15T03:16:48;9.68;;;4.20;;
10801;SDS011;5453;50.852;7.102;2024-01-15T03:19:20;10.35;;;4.60;;
10801;SDS011;5453;50.852;7.102;2024-01-15T03:21:52;16.35;;;5.35;;
10801;SDS011;5453;50.852;7.102;2024-01-15T03:24:26;11.98;;;4.28;;
10801;SDS011;5453;50.852;7.102;2024-01-15T03:26:58;11.07;;;4.10;;
10801;SDS011;5453;50.852;7.102;2024-01-15T03:29:34;14.68;;;4.43;;
10801;SDS011;5453;50.852;7.102;2024-01-15T03:34:38;10.20;;;3.55;;
10801;SDS011;5453;50.852;7.102;2024-01-15T03:37:11;8.77;;;4.38;;
10801;SDS011;5453;50.852;7.102;2024-01-15T03:39:44;10.52;;;3.63;;
10801;SDS011;5453;50.852;7.102;2024-01-15T03:42:17;15.13;;;5.05;;
10801;SDS011;5453;50.852;7.102;2024-01-15T03:44:49;8.55;;;3.75;;
10801;SDS011;5453;50.852;7.102;2024-01-15T03:47:21;17.20;;;6.05;;
10801;SDS011;5453;50.852;7.102;2024-01-15T03:49:54;18.13;;;3.65;;
10801;SDS011;5453;50.852;7.102;2024-01-15T03:52:26;12.50;;;5.53;;
10801;SDS011;5453;50.852;7.102;2024-01-15T03:55:00;10.30;;;4.28;;
10801;SDS011;5453;50.852;7.102;2024-01-15T03:57:32;10.57;;;4.63;;
10801;SDS011;5453;50.852;7.102;2024-01-15T04:00:05;13.63;;;4.22;;
10801;SDS011;5453;50.852;7.102;2024-01-15T04:02:39;12.43;;;4.55;;
10801;SDS011;5453;50.852;7.102;2024-01-15T04:05:11;17.65;;;3.67;;
10801;SDS011;5453;50.852;7.102;2024-01-15T04:07:43;9.38;;;4.32;;
10801;SDS011;5453;50.852;7.102;2024-01-15T04:10:17;13.25;;;5.18;;
10801;SDS011;5453;50.852;7.102;2024-01-15T04:12:50;8.95;;;3.83;;
10801;SDS011;5453;50.852;7.102;2024-01-15T04:15:25;18.15;;;4.97;;
10801;SDS011;5453;50.852;7.102;2024-01-15T04:20:31;9.27;;;4.15;;
10801;SDS011;5453;50.852;7.102;2024-01-15T04:23:03;8.43;;;5.15;;
10801;SDS011;5453;50.852;7.102;2024-01-15T04:25:37;15.25;;;4.70;;
10801;SDS011;5453;50.852;7.102;2024-01-15T04:28:12;14.30;;;5.03;;
10801;SDS011;5453;50.852;7.102;2024-01-15T04:30:45;14.30;;;4.85;;
10801;SDS011;5453;50.852;7.102;2024-01-15T04:33:17;9.50;;;4.70;;
10801;SDS011;5453;50.852;7.102;2024-01-15T04:35:49;7.68;;;3.55;;
10801;SDS011;5453;50.852;7.102;2024-01-15T04:38:22;13.20;;;5.15;;
10801;SDS011;5453;50.852;7.102;2024-01-15T04:40:56;15.93;;;4.22;;
10801;SDS011;5453;50.852;7.102;2024-01-15T04:43:31;7.78;;;4.80;;
10801;SDS011;5453;50.852;7.102;2024-01-15T04:46:08;11.63;;;5.22;;
10801;SDS011;5453;50.852;7.102;2024-01-15T04:48:40;15.07;;;4.47;;
10801;SDS011;5453;50.852;7.102;2024-01-15T04:51:13;11.25;;;5.18;;
10801;SDS011;5453;50.852;7.102;2024-01-15T04:53:45;10.02;;;4.32;;
10801;SDS011;5453;50.852;7.102;2024-01-15T04:56:19;8.75;;;3.90;;
10801;SDS011;5453;50.852;7.102;2024-01-15T04:58:51;13.15;;;4.40;;
10801;SDS011;5453;50.852;7.102;2024-01-15T05:01:23;10.68;;;4.47;;
10801;SDS011;5453;50.852;7.102;2024-01-15T05:03:56;6.32;;;3.28;;
10801;SDS011;5453;50.852;7.102;2024-01-15T05:06:28;8.20;;;3.10;;
10801;SDS011;5453;50.852;7.102;2024-01-15T05:09:00;10.60;;;3.63;;
10801;SDS011;5453;50.852;7.102;2024-01-15T05:11:35;10.32;;;4.05;;
10801;SDS011;5453;50.852;7.102;2024-01-15T05:14:08;12.90;;;3.63;;
10801;SDS011;5453;50.852;7.102;2024-01-15T05:16:44;11.95;;;3.78;;
10801;SDS011;5453;50.852;7.102;2024-01-15T05:19:19;14.02;;;4.25;;
10801;SDS011;5453;50.852;7.102;2024-01-15T05:21:51;8.48;;;3.72;;
10801;SDS011;5453;50.852;7.102;2024-01-15T05:24:23;5.22;;;3.25;;
10801;SDS011;5453;50.852;7.102;2024-01-15T05:26:58;10.38;;;3.83;;
10801;SDS011;5453;50.852;7.102;2024-01-15T05:29:33;10.30;;;4.30;;
10801;SDS011;5453;50.852;7.102;2024-01-15T05:34:38;7.57;;;4.10;;
10801;SDS011;5453;50.852;7.102;2024-01-15T05:37:10;13.02;;;4.38;;
10801;SDS011;5453;50.852;7.102;2024-01-15T05:39:42;11.48;;;4.40;;
10801;SDS011;5453;50.852;7.102;2024-01-15T05:42:16;7.40;;;3.22;;
10801;SDS011;5453;50.852;7.102;2024-01-15T05:44:49;8.63;;;3.63;;
10801;SDS011;5453;50.852;7.102;2024-01-15T05:47:21;11.43;;;4.10;;
10801;SDS011;5453;50.852;7.102;2024-01-15T05:49:54;9.65;;;4.43;;
10801;SDS011;5453;50.852;7.102;2024-01-15T05:52:27;8.38;;;3.15;;
10801;SDS011;5453;50.852;7.102;2024-01-15T05:55:00;6.60;;;4.07;;
10801;SDS011;5453;50.852;7.102;2024-01-15T05:57:37;8.25;;;4.78;;
10801;SDS011;5453;50.852;7.102;2024-01-15T06:00:09;15.98;;;4.60;;
10801;SDS011;5453;50.852;7.102;2024-01-15T06:02:43;6.25;;;3.55;;
10801;SDS011;5453;50.852;7.102;2024-01-15T06:05:15;8.73;;;3.85;;
10801;SDS011;5453;50.852;7.102;2024-01-15T06:07:48;13.60;;;4.40;;
10801;SDS011;5453;50.852;7.102;2024-01-15T06:10:20;6.57;;;3.10;;
10801;SDS011;5453;50.852;7.102;2024-01-15T06:12:54;7.45;;;3.90;;
10801;SDS011;5453;50.852;7.102;2024-01-15T06:15:27;10.02;;;4.75;;
10801;SDS011;5453;50.852;7.102;2024-01-15T06:17:59;10.55;;;3.95;;
10801;SDS011;5453;50.852;7.102;2024-01-15T06:20:31;8.32;;;4.50;;
10801;SDS011;5453;50.852;7.102;2024-01-15T06:23:04;11.55;;;4.60;;
10801;SDS011;5453;50.852;7.102;2024-01-15T06:25:39;7.13;;;3.80;;
10801;SDS011;5453;50.852;7.102;2024-01-15T06:30:45;14.85;;;4.72;;
10801;SDS011;5453;50.852;7.102;2024-01-15T06:33:18;10.18;;;3.15;;
10801;SDS011;5453;50.852;7.102;2024-01-15T06:35:50;7.20;;;3.60;;
10801;SDS011;5453;50.852;7.102;2024-01-15T06:38:22;8.55;;;3.42;;
10801;SDS011;5453;50.852;7.102;2024-01-15T06:40:55;9.52;;;3.63;;
10801;SDS011;5453;50.852;7.102;2024-01-15T06:43:29;6.57;;;2.95;;
10801;SDS011;5453;50.852;7.102;2024-01-15T06:46:01;8.57;;;4.32;;
10801;SDS011;5453;50.852;7.102;2024-01-15T06:48:33;13.55;;;4.03;;
10801;SDS011;5453;50.852;7.102;2024-01-15T06:51:06;9.48;;;3.45;;
10801;SDS011;5453;50.852;7.102;2024-01-15T06:53:41;10.25;;;5.30;;
10801;SDS011;5453;50.852;7.102;2024-01-15T06:56:14;9.63;;;4.10;;
10801;SDS011;5453;50.852;7.102;2024-01-15T06:58:47;8.48;;;4.05;;
10801;SDS011;5453;50.852;7.102;2024-01-15T07:01:20;9.35;;;3.83;;
10801;SDS011;5453;50.852;7.102;2024-01-15T07:03:52;11.35;;;5.15;;
10801;SDS011;5453;50.852;7.102;2024-01-15T07:06:25;11.57;;;4.75;;
10801;SDS011;5453;50.852;7.102;2024-01-15T07:08:57;13.98;;;4.13;;
10801;SDS011;5453;50.852;7.102;2024-01-15T07:11:30;9.98;;;4.03;;
10801;SDS011;5453;50.852;7.102;2024-01-15T07:14:03;12.27;;;4.93;;
10801;SDS011;5453;50.852;7.102;2024-01-15T07:16:36;11.35;;;5.53;;
10801;SDS011;5453;50.852;7.102;2024-01-15T07:19:08;10.93;;;4.82;;
10801;SDS011;5453;50.852;7.102;2024-01-15T07:21:41;8.10;;;4.15;;
10801;SDS011;5453;50.852;7.102;2024-01-15T07:24:13;13.77;;;5.80;;
10801;SDS011;5453;50.852;7.102;2024-01-15T07:26:45;11.48;;;4.32;;
10801;SDS011;5453;50.852;7.102;2024-01-15T07:29:19;11.95;;;4.93;;
10801;SDS011;5453;50.852;7.102;2024-01-15T07:31:51;8.65;;;4.15;;
10801;SDS011;5453;50.852;7.102;2024-01-15T07:34:24;9.75;;;3.60;;
10801;SDS011;5453;50.852;7.102;2024-01-15T07:36:56;9.05;;;5.20;;
10801;SDS011;5453;50.852;7.102;2024-01-15T07:39:29;8.98;;;4.60;;
10801;SDS011;5453;50.852;7.102;2024-01-15T07:42:01;12.77;;;4.72;;
10801;SDS011;5453;50.852;7.102;2024-01-15T07:44:35;11.43;;;4.60;;
10801;SDS011;5453;50.852;7.102;2024-01-15T07:47:08;10.50;;;4.45;;
10801;SDS011;5453;50.852;7.102;2024-01-15T07:49:43;8.82;;;3.50;;
10801;SDS011;5453;50.852;7.102;2024-01-15T07:52:16;9.02;;;4.60;;
10801;SDS011;5453;50.852;7.102;2024-01-15T07:54:48;8.57;;;4.63;;
10801;SDS011;5453;50.852;7.102;2024-01-15T07:57:21;8.00;;;5.40;;
10801;SDS011;5453;50.852;7.102;2024-01-15T07:59:58;9.10;;;4.35;;
10801;SDS011;5453;50.852;7.102;2024-01-15T08:02:31;14.45;;;6.30;;
10801;SDS011;5453;50.852;7.102;2024-01-15T08:05:04;13.25;;;4.82;;
10801;SDS011;5453;50.852;7.102;2024-01-15T08:07:37;9.75;;;4.95;;
10801;SDS011;5453;50.852;7.102;2024-01-15T08:10:09;9.15;;;4.03;;
10801;SDS011;5453;50.852;7.102;2024-01-15T08:12:44;10.40;;;3.95;;
10801;SDS011;5453;50.852;7.102;2024-01-15T08:15:17;9.43;;;4.53;;
10801;SDS011;5453;50.852;7.102;2024-01-15T08:17:50;6.70;;;4.45;;
10801;SDS011;5453;50.852;7.102;2024-01-15T08:20:22;11.40;;;3.85;;
10801;SDS011;5453;50.852;7.102;2024-01-15T08:22:55;11.43;;;4.22;;
10801;SDS011;5453;50.852;7.102;2024-01-15T08:25:28;8.30;;;4.47;;
10801;SDS011;5453;50.852;7.102;2024-01-15T08:28:00;8.90;;;3.78;;
10801;SDS011;5453;50.852;7.102;2024-01-15T08:30:34;12.02;;;4.43;;
10801;SDS011;5453;50.852;7.102;2024-01-15T08:33:06;9.40;;;3.90;;
10801;SDS011;5453;50.852;7.102;2024-01-15T08:35:38;8.02;;;3.50;;
10801;SDS011;5453;50.852;7.102;2024-01-15T08:38:11;11.98;;;4.63;;
10801;SDS011;5453;50.852;7.102;2024-01-15T08:40:43;9.20;;;3.75;;
10801;SDS011;5453;50.852;7.102;2024-01-15T08:43:16;10.02;;;4.00;;
10801;SDS011;5453;50.852;7.102;2024-01-15T08:45:49;11.20;;;4.97;;
10801;SDS011;5453;50.852;7.102;2024-01-15T08:48:21;13.25;;;3.65;;
10801;SDS011;5453;50.852;7.102;2024-01-15T08:50:53;10.40;;;5.32;;
10801;SDS011;5453;50.852;7.102;2024-01-15T08:53:26;10.30;;;3.53;;
10801;SDS011;5453;50.852;7.102;2024-01-15T08:55:59;6.82;;;3.70;;
10801;SDS011;5453;50.852;7.102;2024-01-15T08:58:31;6.47;;;3.17;;
10801;SDS011;5453;50.852;7.102;2024-01-15T09:01:05;7.57;;;3.53;;
10801;SDS011;5453;50.852;7.102;2024-01-15T09:03:37;8.25;;;3.58;;
10801;SDS011;5453;50.852;7.102;2024-01-15T09:06:12;9.15;;;4.75;;
10801;SDS011;5453;50.852;7.102;2024-01-15T09:08:44;8.23;;;4.18;;
10801;SDS011;5453;50.852;7.102;2024-01-15T09:11:16;7.10;;;3.72;;
10801;SDS011;5453;50.852;7.102;2024-01-15T09:13:52;11.35;;;4.13;;
10801;SDS011;5453;50.852;7.102;2024-01-15T09:18:58;7.50;;;3.58;;
10801;SDS011;5453;50.852;7.102;2024-01-15T09:21:30;5.95;;;4.03;;
10801;SDS011;5453;50.852;7.102;2024-01-15T09:24:06;8.18;;;3.67;;
10801;SDS011;5453;50.852;7.102;2024-01-15T09:26:38;9.18;;;3.67;;
10801;SDS011;5453;50.852;7.102;2024-01-15T09:29:11;7.20;;;3.83;;
10801;SDS011;5453;50.852;7.102;2024-01-15T09:31:47;9.65;;;4.15;;
10801;SDS011;5453;50.852;7.102;2024-01-15T09:34:20;12.35;;;4.70;;
10801;SDS011;5453;50.852;7.102;2024-01-15T09:36:53;11.20;;;3.50;;
10801;SDS011;5453;50.852;7.102;2024-01-15T09:39:25;8.57;;;3.50;;
10801;SDS011;5453;50.852;7.102;2024-01-15T09:42:01;10.70;;;4.18;;
10801;SDS011;5453;50.852;7.102;2024-01-15T09:44:35;4.80;;;3.15;;
10801;SDS011;5453;50.852;7.102;2024-01-15T09:47:09;8.75;;;3.58;;
10801;SDS011;5453;50.852;7.102;2024-01-15T09:49:42;12.32;;;3.20;;
10801;SDS011;5453;50.852;7.102;2024-01-15T09:52:15;7.25;;;3.05;;
10801;SDS011;5453;50.852;7.102;2024-01-15T09:54:50;6.40;;;3.78;;
10801;SDS011;5453;50.852;7.102;2024-01-15T09:57:24;4.70;;;2.05;;
10801;SDS011;5453;50.852;7.102;2024-01-15T09:59:56;5.43;;;2.75;;
10801;SDS011;5453;50.852;7.102;2024-01-15T10:02:37;4.15;;;2.63;;
10801;SDS011;5453;50.852;7.102;2024-01-15T10:05:11;3.05;;;2.45;;
10801;SDS011;5453;50.852;7.102;2024-01-15T10:07:44;4.18;;;1.52;;
10801;SDS011;5453;50.852;7.102;2024-01-15T10:10:20;6.90;;;2.33;;
10801;SDS011;5453;50.852;7.102;2024-01-15T10:12:53;3.92;;;1.90;;
10801;SDS011;5453;50.852;7.102;2024-01-15T10:15:26;3.72;;;2.53;;
10801;SDS011;5453;50.852;7.102;2024-01-15T10:18:00;4.15;;;2.22;;
10801;SDS011;5453;50.852;7.102;2024-01-15T10:20:32;3.08;;;1.80;;
10801;SDS011;5453;50.852;7.102;2024-01-15T10:23:05;2.15;;;1.33;;
10801;SDS011;5453;50.852;7.102;2024-01-15T10:25:37;3.35;;;1.77;;
10801;SDS011;5453;50.852;7.102;2024-01-15T10:28:10;5.55;;;2.17;;
10801;SDS011;5453;50.852;7.102;2024-01-15T10:30:45;1.85;;;1.40;;
10801;SDS011;5453;50.852;7.102;2024-01-15T10:33:19;3.58;;;1.90;;
10801;SDS011;5453;50.852;7.102;2024-01-15T10:35:55;2.60;;;1.70;;
10801;SDS011;5453;50.852;7.102;2024-01-15T10:38:29;5.78;;;2.10;;
10801;SDS011;5453;50.852;7.102;2024-01-15T10:41:02;1.95;;;1.52;;
10801;SDS011;5453;50.852;7.102;2024-01-15T10:43:35;1.85;;;1.25;;
10801;SDS011;5453;50.852;7.102;2024-01-15T10:46:11;4.00;;;2.25;;
10801;SDS011;5453;50.852;7.102;2024-01-15T10:48:45;3.13;;;1.88;;
10801;SDS011;5453;50.852;7.102;2024-01-15T10:51:18;3.15;;;1.75;;
10801;SDS011;5453;50.852;7.102;2024-01-15T10:53:51;3.20;;;2.35;;
10801;SDS011;5453;50.852;7.102;2024-01-15T10:56:24;5.43;;;2.63;;
10801;SDS011;5453;50.852;7.102;2024-01-15T10:58:58;6.22;;;2.55;;
10801;SDS011;5453;50.852;7.102;2024-01-15T11:01:31;5.75;;;1.75;;
10801;SDS011;5453;50.852;7.102;2024-01-15T11:04:06;3.22;;;1.50;;
10801;SDS011;5453;50.852;7.102;2024-01-15T11:06:43;8.98;;;2.13;;
10801;SDS011;5453;50.852;7.102;2024-01-15T11:09:18;4.47;;;2.10;;
10801;SDS011;5453;50.852;7.102;2024-01-15T11:11:52;2.92;;;1.52;;
10801;SDS011;5453;50.852;7.102;2024-01-15T11:14:38;3.22;;;1.67;;
10801;SDS011;5453;50.852;7.102;2024-01-15T11:17:14;3.72;;;2.13;;
10801;SDS011;5453;50.852;7.102;2024-01-15T11:19:50;3.20;;;1.83;;
10801;SDS011;5453;50.852;7.102;2024-01-15T11:25:20;1.00;;;0.93;;
10801;SDS011;5453;50.852;7.102;2024-01-15T11:27:53;3.13;;;1.83;;
10801;SDS011;5453;50.852;7.102;2024-01-15T11:30:30;3.72;;;1.90;;
10801;SDS011;5453;50.852;7.102;2024-01-15T11:33:07;6.20;;;1.92;;
10801;SDS011;5453;50.852;7.102;2024-01-15T11:36:10;2.38;;;1.90;;
10801;SDS011;5453;50.852;7.102;2024-01-15T11:38:43;3.25;;;2.00;;
10801;SDS011;5453;50.852;7.102;2024-01-15T11:41:15;3.92;;;2.25;;
10801;SDS011;5453;50.852;7.102;2024-01-15T11:43:48;4.47;;;2.72;;
10801;SDS011;5453;50.852;7.102;2024-01-15T11:46:21;2.75;;;1.58;;
10801;SDS011;5453;50.852;7.102;2024-01-15T11:48:53;4.85;;;2.38;;
10801;SDS011;5453;50.852;7.102;2024-01-15T11:51:37;2.85;;;2.17;;
10801;SDS011;5453;50.852;7.102;2024-01-15T11:54:10;3.15;;;2.00;;
10801;SDS011;5453;50.852;7.102;2024-01-15T11:56:45;6.35;;;2.35;;
10801;SDS011;5453;50.852;7.102;2024-01-15T11:59:18;4.97;;;2.88;;
10801;SDS011;5453;50.852;7.102;2024-01-15T12:01:50;3.13;;;2.38;;
10801;SDS011;5453;50.852;7.102;2024-01-15T12:04:26;4.43;;;2.67;;
10801;SDS011;5453;50.852;7.102;2024-01-15T12:07:00;4.97;;;2.65;;
10801;SDS011;5453;50.852;7.102;2024-01-15T12:09:33;2.90;;;2.17;;
10801;SDS011;5453;50.852;7.102;2024-01-15T12:12:07;4.45;;;3.00;;
10801;SDS011;5453;50.852;7.102;2024-01-15T12:14:45;5.05;;;3.00;;
10801;SDS011;5453;50.852;7.102;2024-01-15T12:17:18;4.22;;;2.30;;
10801;SDS011;5453;50.852;7.102;2024-01-15T12:19:50;6.55;;;2.30;;
10801;SDS011;5453;50.852;7.102;2024-01-15T12:22:28;4.72;;;2.08;;
10801;SDS011;5453;50.852;7.102;2024-01-15T12:25:00;5.65;;;2.25;;
10801;SDS011;5453;50.852;7.102;2024-01-15T12:27:33;6.95;;;2.67;;
10801;SDS011;5453;50.852;7.102;2024-01-15T12:30:06;4.50;;;2.53;;
10801;SDS011;5453;50.852;7.102;2024-01-15T12:32:42;3.85;;;2.33;;
10801;SDS011;5453;50.852;7.102;2024-01-15T12:35:16;3.60;;;2.63;;
10801;SDS011;5453;50.852;7.102;2024-01-15T12:37:50;3.53;;;2.05;;
10801;SDS011;5453;50.852;7.102;2024-01-15T12:40:26;8.55;;;2.42;;
10801;SDS011;5453;50.852;7.102;2024-01-15T12:42:58;4.28;;;2.22;;
10801;SDS011;5453;50.852;7.102;2024-01-15T12:45:31;4.20;;;2.17;;
10801;SDS011;5453;50.852;7.102;2024-01-15T12:48:05;9.43;;;3.10;;
10801;SDS011;5453;50.852;7.102;2024-01-15T12:50:42;7.97;;;2.95;;
10801;SDS011;5453;50.852;7.102;2024-01-15T12:53:17;6.95;;;2.58;;
10801;SDS011;5453;50.852;7.102;2024-01-15T12:55:49;13.02;;;2.47;;
10801;SDS011;5453;50.852;7.102;2024-01-15T12:58:22;4.05;;;2.65;;
10801;SDS011;5453;50.852;7.102;2024-01-15T13:00:54;3.25;;;2.50;;
10801;SDS011;5453;50.852;7.102;2024-01-15T13:03:27;3.13;;;2.15;;
10801;SDS011;5453;50.852;7.102;2024-01-15T13:06:00;4.10;;;2.15;;
10801;SDS011;5453;50.852;7.102;2024-01-15T13:08:34;3.72;;;2.15;;
10801;SDS011;5453;50.852;7.102;2024-01-15T13:11:06;4.93;;;2.10;;
10801;SDS011;5453;50.852;7.102;2024-01-15T13:13:40;3.22;;;1.58;;
10801;SDS011;5453;50.852;7.102;2024-01-15T13:16:13;4.38;;;2.30;;
10801;SDS011;5453;50.852;7.102;2024-01-15T13:18:45;7.28;;;2.38;;
10801;SDS011;5453;50.852;7.102;2024-01-15T13:21:20;6.50;;;2.25;;
10801;SDS011;5453;50.852;7.102;2024-01-15T13:23:54;3.63;;;1.85;;
10801;SDS011;5453;50.852;7.102;2024-01-15T13:26:26;7.78;;;2.42;;
10801;SDS011;5453;50.852;7.102;2024-01-15T13:28:59;3.05;;;1.63;;
10801;SDS011;5453;50.852;7.102;2024-01-15T13:31:32;3.85;;;1.83;;
10801;SDS011;5453;50.852;7.102;2024-01-15T13:34:04;2.67;;;1.52;;
10801;SDS011;5453;50.852;7.102;2024-01-15T13:36:38;3.67;;;2.17;;
10801;SDS011;5453;50.852;7.102;2024-01-15T13:39:11;3.45;;;1.90;;
10801;SDS011;5453;50.852;7.102;2024-01-15T13:41:44;2.05;;;1.40;;
10801;SDS011;5453;50.852;7.102;2024-01-15T13:44:16;2.20;;;1.60;;
10801;SDS011;5453;50.852;7.102;2024-01-15T13:46:50;2.33;;;1.65;;
10801;SDS011;5453;50.852;7.102;2024-01-15T13:49:22;2.05;;;1.67;;
10801;SDS011;5453;50.852;7.102;2024-01-15T13:51:55;2.80;;;1.33;;
10801;SDS011;5453;50.852;7.102;2024-01-15T13:54:30;2.47;;;2.15;;
10801;SDS011;5453;50.852;7.102;2024-01-15T13:57:03;2.95;;;1.70;;
10801;SDS011;5453;50.852;7.102;2024-01-15T13:59:36;5.43;;;1.90;;
10801;SDS011;5453;50.852;7.102;2024-01-15T14:02:08;1.83;;;1.17;;
10801;SDS011;5453;50.852;7.102;2024-01-15T14:04:41;1.92;;;1.02;;
10801;SDS011;5453;50.852;7.102;2024-01-15T14:07:13;1.20;;;1.05;;
10801;SDS011;5453;50.852;7.102;2024-01-15T14:09:47;10.43;;;1.50;;
10801;SDS011;5453;50.852;7.102;2024-01-15T14:12:20;2.05;;;1.40;;
10801;SDS011;5453;50.852;7.102;2024-01-15T14:14:52;1.02;;;1.02;;
10801;SDS011;5453;50.852;7.102;2024-01-15T14:17:25;0.88;;;0.88;;
10801;SDS011;5453;50.852;7.102;2024-01-15T14:19:57;0.88;;;0.55;;
10801;SDS011;5453;50.852;7.102;2024-01-15T14:22:30;1.55;;;1.00;;
10801;SDS011;5453;50.852;7.102;2024-01-15T14:25:04;2.80;;;1.30;;
10801;SDS011;5453;50.852;7.102;2024-01-15T14:27:37;3.65;;;1.75;;
10801;SDS011;5453;50.852;7.102;2024-01-15T14:30:10;2.55;;;0.77;;
10801;SDS011;5453;50.852;7.102;2024-01-15T14:32:46;1.40;;;1.17;;
10801;SDS011;5453;50.852;7.102;2024-01-15T14:35:18;0.95;;;0.95;;
10801;SDS011;5453;50.852;7.102;2024-01-15T14:37:51;1.75;;;0.90;;
10801;SDS011;5453;50.852;7.102;2024-01-15T14:40:25;6.57;;;0.73;;
10801;SDS011;5453;50.852;7.102;2024-01-15T14:42:57;1.25;;;1.17;;
10801;SDS011;5453;50.852;7.102;2024-01-15T14:45:30;4.70;;;0.93;;
10801;SDS011;5453;50.852;7.102;2024-01-15T14:48:02;0.90;;;0.90;;
10801;SDS011;5453;50.852;7.102;2024-01-15T14:50:35;1.88;;;1.15;;
10801;SDS011;5453;50.852;7.102;2024-01-15T14:53:08;1.48;;;1.10;;
10801;SDS011;5453;50.852;7.102;2024-01-15T14:55:42;1.00;;;0.90;;
10801;SDS011;5453;50.852;7.102;2024-01-15T14:58:14;0.73;;;0.73;;
10801;SDS011;5453;50.852;7.102;2024-01-15T15:00:50;0.93;;;0.77;;
10801;SDS011;5453;50.852;7.102;2024-01-15T15:03:23;0.70;;;0.68;;
10801;SDS011;5453;50.852;7.102;2024-01-15T15:05:55;1.30;;;0.90;;
10801;SDS011;5453;50.852;7.102;2024-01-15T15:08:28;1.05;;;0.88;;
10801;SDS011;5453;50.852;7.102;2024-01-15T15:11:02;2.53;;;1.35;;
10801;SDS011;5453;50.852;7.102;2024-01-15T15:13:35;1.63;;;0.90;;
10801;SDS011;5453;50.852;7.102;2024-01-15T15:16:08;1.48;;;1.10;;
10801;SDS011;5453;50.852;7.102;2024-01-15T15:18:44;1.25;;;1.13;;
10801;SDS011;5453;50.852;7.102;2024-01-15T15:21:16;1.25;;;1.15;;
10801;SDS011;5453;50.852;7.102;2024-01-15T15:23:49;0.93;;;0.93;;
10801;SDS011;5453;50.852;7.102;2024-01-15T15:26:23;1.20;;;1.10;;
10801;SDS011;5453;50.852;7.102;2024-01-15T15:28:55;1.20;;;0.77;;
10801;SDS011;5453;50.852;7.102;2024-01-15T15:31:28;1.80;;;1.30;;
10801;SDS011;5453;50.852;7.102;2024-01-15T15:34:00;3.75;;;0.85;;
10801;SDS011;5453;50.852;7.102;2024-01-15T15:36:33;1.33;;;1.02;;
10801;SDS011;5453;50.852;7.102;2024-01-15T15:39:06;1.30;;;1.20;;
10801;SDS011;5453;50.852;7.102;2024-01-15T15:41:39;2.28;;;0.85;;
10801;SDS011;5453;50.852;7.102;2024-01-15T15:44:12;1.35;;;1.23;;
10801;SDS011;5453;50.852;7.102;2024-01-15T15:46:47;0.70;;;0.63;;
10801;SDS011;5453;50.852;7.102;2024-01-15T15:49:19;0.73;;;0.73;;
10801;SDS011;5453;50.852;7.102;2024-01-15T15:51:52;1.83;;;1.30;;
10801;SDS011;5453;50.852;7.102;2024-01-15T15:54:24;0.82;;;0.75;;